createdAt,value
2023-03-26T00:01:24.006Z,97226.47
2023-03-26T00:03:54.761Z,97232.28
2023-03-26T00:06:24.495Z,97232.16
2023-03-26T00:08:55.640Z,97213.75
2023-03-26T00:11:25.026Z,97242.78
2023-03-26T00:13:57.053Z,97230.25
2023-03-26T00:16:27.880Z,97232.59
2023-03-26T00:18:57.849Z,97242.03
2023-03-26T00:21:28.885Z,97263.13
2023-03-26T00:23:59.829Z,97271.09
2023-03-26T00:26:29.837Z,97245.25
2023-03-26T00:29:00.272Z,97229.63
2023-03-26T00:31:28.731Z,97229.81
2023-03-26T00:33:57.858Z,97241.03
2023-03-26T00:36:27.135Z,97230.50
2023-03-26T00:38:56.278Z,97233.00
2023-03-26T00:41:31.048Z,97226.06
2023-03-26T00:44:00.902Z,97221.66
2023-03-26T00:46:30.699Z,97223.84
2023-03-26T00:48:59.933Z,97218.16
2023-03-26T00:51:29.759Z,97220.50
2023-03-26T00:53:59.044Z,97209.59
2023-03-26T00:56:28.754Z,97203.22
2023-03-26T00:58:57.874Z,97206.88
2023-03-26T01:01:28.791Z,97201.09
2023-03-26T01:04:08.793Z,97203.09
2023-03-26T01:06:39.065Z,97190.81
2023-03-26T01:09:14.152Z,97190.09
2023-03-26T01:11:43.824Z,97182.38
2023-03-26T01:14:14.452Z,97182.28
2023-03-26T01:16:46.240Z,97183.03
2023-03-26T01:19:22.924Z,97178.47
2023-03-26T01:21:51.150Z,97179.13
2023-03-26T01:24:22.187Z,97175.03
2023-03-26T01:27:11.605Z,97187.13
2023-03-26T01:29:44.853Z,97178.81
2023-03-26T01:32:40.481Z,97181.59
2023-03-26T01:35:17.355Z,97183.50
2023-03-26T01:37:53.662Z,97178.00
2023-03-26T01:40:27.462Z,97185.00
2023-03-26T01:42:59.201Z,97181.13
2023-03-26T01:45:29.947Z,97177.28
2023-03-26T01:47:58.440Z,97179.66
2023-03-26T01:50:27.248Z,97171.75
2023-03-26T01:52:55.519Z,97179.06
2023-03-26T01:55:27.081Z,97178.38
2023-03-26T01:58:01.071Z,97172.16
2023-03-26T02:00:31.399Z,97187.94
2023-03-26T02:03:06.396Z,97185.31
2023-03-26T02:05:37.983Z,97176.25
2023-03-26T02:08:12.052Z,97166.06
2023-03-26T02:10:44.288Z,97170.59
2023-03-26T02:13:12.944Z,97176.16
2023-03-26T02:15:42.133Z,97175.38
2023-03-26T02:18:11.008Z,97169.81
2023-03-26T02:20:39.636Z,97172.50
2023-03-26T02:23:08.875Z,97169.50
2023-03-26T02:25:39.938Z,97176.56
2023-03-26T02:28:09.730Z,97177.94
2023-03-26T02:30:38.415Z,97176.41
2023-03-26T02:33:06.915Z,97189.66
2023-03-26T02:35:35.545Z,97181.00
2023-03-26T02:38:04.084Z,97191.03
2023-03-26T02:40:32.567Z,97193.16
2023-03-26T02:43:01.046Z,97184.16
2023-03-26T02:45:31.037Z,97177.91
2023-03-26T02:48:01.227Z,97180.25
2023-03-26T02:50:32.608Z,97174.28
2023-03-26T02:53:00.883Z,97170.94
2023-03-26T02:55:29.452Z,97166.59
2023-03-26T02:57:58.013Z,97164.34
2023-03-26T03:00:26.593Z,97161.97
2023-03-26T03:02:58.139Z,97146.91
2023-03-26T03:05:27.263Z,97145.88
2023-03-26T03:07:58.423Z,97158.78
2023-03-26T03:10:27.739Z,97153.97
2023-03-26T03:12:56.524Z,97157.03
2023-03-26T03:15:25.117Z,97156.25
2023-03-26T03:17:53.484Z,97155.44
2023-03-26T03:20:23.615Z,97159.47
2023-03-26T03:22:51.884Z,97148.56
2023-03-26T03:25:22.288Z,97155.91
2023-03-26T03:27:50.705Z,97147.19
2023-03-26T03:30:19.392Z,97145.78
2023-03-26T03:32:48.235Z,97149.34
2023-03-26T03:35:16.944Z,97140.75
2023-03-26T03:37:46.709Z,97148.88
2023-03-26T03:40:15.272Z,97135.38
2023-03-26T03:42:43.634Z,97140.63
2023-03-26T03:45:12.738Z,97140.31
2023-03-26T03:47:41.013Z,97152.50
2023-03-26T03:50:11.416Z,97146.03
2023-03-26T03:52:39.704Z,97158.00
2023-03-26T03:55:11.272Z,97149.00
2023-03-26T03:57:39.400Z,97156.06
2023-03-26T04:00:11.871Z,97156.31
2023-03-26T04:02:43.138Z,97162.44
2023-03-26T04:05:12.251Z,97170.47
2023-03-26T04:07:40.883Z,97167.47
2023-03-26T04:10:13.705Z,97168.19
2023-03-26T04:12:41.976Z,97166.78
2023-03-26T04:15:11.317Z,97154.28
2023-03-26T04:17:42.747Z,97167.03
2023-03-26T04:20:14.984Z,97162.53
2023-03-26T04:22:43.701Z,97156.13
2023-03-26T04:25:15.696Z,97166.38
2023-03-26T04:27:44.225Z,97164.03
2023-03-26T04:30:15.804Z,97158.56
2023-03-26T04:32:44.818Z,97157.88
2023-03-26T04:35:14.882Z,97146.75
2023-03-26T04:37:44.447Z,97160.28
2023-03-26T04:40:17.701Z,97163.78
2023-03-26T04:42:46.667Z,97165.75
2023-03-26T04:45:17.817Z,97162.22
2023-03-26T04:47:46.786Z,97158.09
2023-03-26T04:50:15.898Z,97153.50
2023-03-26T04:52:45.259Z,97164.50
2023-03-26T04:55:23.163Z,97153.06
2023-03-26T04:57:54.745Z,97159.13
2023-03-26T05:00:23.444Z,97148.13
2023-03-26T05:02:54.010Z,97148.31
2023-03-26T05:05:23.084Z,97150.63
2023-03-26T05:07:51.307Z,97148.53
2023-03-26T05:10:21.751Z,97140.00
2023-03-26T05:12:50.531Z,97142.53
2023-03-26T05:15:19.182Z,97143.84
2023-03-26T05:17:48.530Z,97147.25
2023-03-26T05:20:21.001Z,97135.81
2023-03-26T05:22:50.463Z,97150.41
2023-03-26T05:25:21.169Z,97156.25
2023-03-26T05:27:49.494Z,97149.31
2023-03-26T05:30:20.027Z,97157.53
2023-03-26T05:32:49.496Z,97159.25
2023-03-26T05:35:18.271Z,97155.09
2023-03-26T05:37:46.929Z,97153.94
2023-03-26T05:40:17.253Z,97158.03
2023-03-26T05:42:47.531Z,97151.59
2023-03-26T05:45:16.661Z,97158.38
2023-03-26T05:47:45.157Z,97151.38
2023-03-26T05:50:13.697Z,97161.69
2023-03-26T05:52:42.032Z,97162.69
2023-03-26T05:55:11.422Z,97159.06
2023-03-26T05:57:40.370Z,97168.78
2023-03-26T06:00:12.281Z,97151.41
2023-03-26T06:02:42.983Z,97161.13
2023-03-26T06:05:12.550Z,97168.53
2023-03-26T06:07:40.882Z,97170.78
2023-03-26T06:10:10.784Z,97167.06
2023-03-26T06:12:46.522Z,97171.44
2023-03-26T06:15:16.691Z,97154.47
2023-03-26T06:17:45.007Z,97149.78
2023-03-26T06:20:14.168Z,97155.44
2023-03-26T06:22:42.495Z,97162.81
2023-03-26T06:25:10.942Z,97157.34
2023-03-26T06:27:39.751Z,97160.31
2023-03-26T06:30:09.919Z,97160.63
2023-03-26T06:32:39.635Z,97164.56
2023-03-26T06:35:09.110Z,97171.44
2023-03-26T06:37:37.349Z,97161.72
2023-03-26T06:40:07.261Z,97163.50
2023-03-26T06:43:07.733Z,97162.13
2023-03-26T06:45:24.313Z,97166.13
2023-03-26T06:47:53.925Z,97157.88
2023-03-26T06:50:22.501Z,97164.19
2023-03-26T06:52:51.415Z,97166.22
2023-03-26T06:55:20.008Z,97171.59
2023-03-26T06:57:50.276Z,97170.59
2023-03-26T07:00:19.834Z,97175.53
2023-03-26T07:02:48.678Z,97160.44
2023-03-26T07:05:18.836Z,97155.69
2023-03-26T07:07:47.422Z,97165.38
2023-03-26T07:10:16.796Z,97168.16
2023-03-26T07:12:45.172Z,97157.41
2023-03-26T07:15:13.806Z,97163.13
2023-03-26T07:17:42.010Z,97173.19
2023-03-26T07:20:11.973Z,97162.63
2023-03-26T07:22:42.570Z,97170.41
2023-03-26T07:25:13.141Z,97176.44
2023-03-26T07:27:48.737Z,97177.66
2023-03-26T07:30:21.899Z,97175.13
2023-03-26T07:32:54.888Z,97179.94
2023-03-26T07:35:25.843Z,97160.16
2023-03-26T07:38:04.482Z,97167.50
2023-03-26T07:40:45.616Z,97172.69
2023-03-26T07:43:22.163Z,97170.06
2023-03-26T07:45:51.487Z,97178.47
2023-03-26T07:48:21.446Z,97178.06
2023-03-26T07:50:50.774Z,97173.03
2023-03-26T07:53:21.199Z,97172.41
2023-03-26T07:55:54.821Z,97157.06
2023-03-26T07:58:41.531Z,97180.63
2023-03-26T08:01:13.889Z,97184.28
2023-03-26T08:03:59.503Z,97175.28
2023-03-26T08:06:50.892Z,97175.31
2023-03-26T08:09:24.801Z,97182.38
2023-03-26T08:11:57.948Z,97182.69
2023-03-26T08:14:35.796Z,97175.28
2023-03-26T08:17:09.353Z,97169.19
2023-03-26T08:19:46.482Z,97173.53
2023-03-26T08:22:20.913Z,97159.50
2023-03-26T08:25:02.128Z,97172.09
2023-03-26T08:27:32.174Z,97168.84
2023-03-26T08:30:04.522Z,97160.88
2023-03-26T08:32:35.474Z,97170.78
2023-03-26T08:35:05.365Z,97154.72
2023-03-26T08:37:33.970Z,97158.31
2023-03-26T08:40:18.303Z,97165.47
2023-03-26T08:43:10.831Z,97161.97
2023-03-26T08:46:02.771Z,97150.38
2023-03-26T08:49:04.960Z,97164.16
2023-03-26T08:52:05.693Z,97158.03
2023-03-26T08:54:49.177Z,97160.75
2023-03-26T08:57:36.297Z,97146.94
2023-03-26T09:00:26.813Z,97145.38
2023-03-26T09:03:33.288Z,97152.50
2023-03-26T09:06:34.268Z,97139.75
2023-03-26T09:09:22.622Z,97151.34
2023-03-26T09:12:13.721Z,97132.22
2023-03-26T09:15:23.218Z,97133.81
2023-03-26T09:18:24.240Z,97129.81
2023-03-26T09:21:02.198Z,97134.31
2023-03-26T09:23:58.773Z,97137.91
2023-03-26T09:26:29.558Z,97121.13
2023-03-26T09:29:37.010Z,97119.53
2023-03-26T09:32:48.636Z,97126.03
2023-03-26T09:35:26.308Z,97122.63
2023-03-26T09:38:03.538Z,97127.03
2023-03-26T09:40:38.912Z,97127.84
2023-03-26T09:43:36.418Z,97131.03
2023-03-26T09:46:14.146Z,97119.75
2023-03-26T09:49:11.015Z,97130.84
2023-03-26T09:51:58.478Z,97118.75
2023-03-26T09:54:51.228Z,97123.59
2023-03-26T09:57:29.944Z,97125.72
2023-03-26T10:00:06.602Z,97122.09
2023-03-26T10:02:58.455Z,97140.28
2023-03-26T10:05:45.567Z,97136.91
2023-03-26T10:08:30.856Z,97132.16
2023-03-26T10:11:04.580Z,97097.00
2023-03-26T10:13:40.899Z,97127.28
2023-03-26T10:16:17.397Z,97129.13
2023-03-26T10:18:54.770Z,97132.56
2023-03-26T10:21:31.465Z,97124.66
2023-03-26T10:24:13.242Z,97115.59
2023-03-26T10:27:08.732Z,97116.88
2023-03-26T10:29:59.374Z,97109.97
2023-03-26T10:32:32.526Z,97114.72
2023-03-26T10:35:10.555Z,97112.91
2023-03-26T10:37:49.249Z,97116.09
2023-03-26T10:40:22.526Z,97115.88
2023-03-26T10:43:24.237Z,97104.22
2023-03-26T10:46:07.883Z,97099.75
2023-03-26T10:48:52.942Z,97097.72
2023-03-26T10:51:53.540Z,97093.66
2023-03-26T10:54:31.102Z,97094.53
2023-03-26T10:57:02.190Z,97092.00
2023-03-26T10:59:30.770Z,97074.03
2023-03-26T11:02:30.240Z,97081.84
2023-03-26T11:05:22.333Z,97079.47
2023-03-26T11:07:54.196Z,97085.22
2023-03-26T11:10:37.392Z,97077.53
2023-03-26T11:13:18.524Z,97066.28
2023-03-26T11:15:50.230Z,97072.13
2023-03-26T11:18:22.949Z,97063.19
2023-03-26T11:21:18.748Z,97061.28
2023-03-26T11:24:05.152Z,97051.31
2023-03-26T11:26:40.768Z,97058.91
2023-03-26T11:29:30.858Z,97049.81
2023-03-26T11:32:06.922Z,97055.66
2023-03-26T11:34:38.545Z,97049.75
2023-03-26T11:37:08.065Z,97046.72
2023-03-26T11:39:44.227Z,97043.53
2023-03-26T11:42:15.984Z,97022.50
2023-03-26T11:44:49.474Z,97034.81
2023-03-26T11:47:23.044Z,97031.78
2023-03-26T11:49:53.145Z,97036.19
2023-03-26T11:52:21.766Z,97033.84
2023-03-26T11:54:50.781Z,97027.84
2023-03-26T11:57:21.260Z,97035.97
2023-03-26T11:59:57.987Z,97027.38
2023-03-26T12:02:32.571Z,97031.00
2023-03-26T12:05:13.366Z,97018.75
2023-03-26T12:07:47.628Z,97024.06
2023-03-26T12:10:27.948Z,97017.00
2023-03-26T12:12:57.782Z,97010.13
2023-03-26T12:15:28.872Z,97008.22
2023-03-26T12:17:58.716Z,97004.66
2023-03-26T12:20:38.867Z,96998.28
2023-03-26T12:23:08.260Z,96989.97
2023-03-26T12:25:38.929Z,96976.81
2023-03-26T12:28:18.460Z,96984.03
2023-03-26T12:31:00.901Z,96975.41
2023-03-26T12:33:34.232Z,96992.19
2023-03-26T12:36:20.707Z,96973.88
2023-03-26T12:39:16.124Z,96974.78
2023-03-26T12:44:42.504Z,96964.88
2023-03-26T12:44:54.826Z,96951.28
2023-03-26T12:47:57.630Z,96967.09
2023-03-26T12:50:15.168Z,96954.69
2023-03-26T12:52:49.308Z,96942.72
2023-03-26T12:55:30.161Z,96945.91
2023-03-26T12:58:13.752Z,96943.91
2023-03-26T13:00:50.669Z,96940.72
2023-03-26T13:03:31.998Z,96942.72
2023-03-26T13:06:16.283Z,96937.94
2023-03-26T13:09:05.062Z,96937.59
2023-03-26T13:11:39.275Z,96935.94
2023-03-26T13:14:32.679Z,96935.94
2023-03-26T13:17:05.995Z,96938.53
2023-03-26T13:19:40.811Z,96937.25
2023-03-26T13:22:19.370Z,96930.19
2023-03-26T13:24:53.718Z,96942.94
2023-03-26T13:27:46.027Z,96936.69
2023-03-26T13:30:22.857Z,96937.50
2023-03-26T13:33:01.787Z,96919.19
2023-03-26T13:35:35.808Z,96914.78
2023-03-26T13:38:07.638Z,96911.59
2023-03-26T13:40:44.362Z,96911.25
2023-03-26T13:43:29.590Z,96916.06
2023-03-26T13:46:03.617Z,96912.06
2023-03-26T13:48:36.544Z,96902.88
2023-03-26T13:51:11.406Z,96907.28
2023-03-26T13:53:44.323Z,96912.81
2023-03-26T13:56:16.245Z,96908.41
2023-03-26T13:58:48.205Z,96908.69
2023-03-26T14:01:19.703Z,96908.16
2023-03-26T14:03:54.018Z,96900.63
2023-03-26T14:06:34.263Z,96908.09
2023-03-26T14:09:06.733Z,96902.41
2023-03-26T14:11:45.206Z,96900.06
2023-03-26T14:14:17.516Z,96907.91
2023-03-26T14:16:51.068Z,96902.09
2023-03-26T14:19:44.439Z,96905.53
2023-03-26T14:22:19.546Z,96897.56
2023-03-26T14:24:55.951Z,96892.50
2023-03-26T14:27:39.707Z,96893.28
2023-03-26T14:30:24.369Z,96899.22
2023-03-26T14:33:04.326Z,96885.91
2023-03-26T14:35:37.908Z,96890.50
2023-03-26T14:38:33.092Z,96884.84
2023-03-26T14:41:10.226Z,96884.84
2023-03-26T14:44:07.968Z,96878.63
2023-03-26T14:46:52.440Z,96877.44
2023-03-26T14:49:31.154Z,96874.09
2023-03-26T14:52:11.038Z,96869.34
2023-03-26T14:54:44.371Z,96885.59
2023-03-26T14:57:48.647Z,96868.41
2023-03-26T15:00:49.826Z,96863.50
2023-03-26T15:04:08.822Z,96867.88
2023-03-26T15:07:20.852Z,96863.91
2023-03-26T15:10:16.174Z,96852.56
2023-03-26T15:12:55.956Z,96860.94
2023-03-26T15:15:54.290Z,96857.56
2023-03-26T15:19:12.122Z,96858.06
2023-03-26T15:22:30.773Z,96849.34
2023-03-26T15:25:35.397Z,96845.34
2023-03-26T15:28:40.108Z,96851.31
2023-03-26T15:31:47.657Z,96846.03
2023-03-26T15:34:33.842Z,96841.91
2023-03-26T15:37:50.146Z,96842.06
2023-03-26T15:40:38.310Z,96834.09
2023-03-26T15:43:12.512Z,96841.06
2023-03-26T15:45:42.208Z,96839.84
2023-03-26T15:48:34.439Z,96828.25
2023-03-26T15:51:19.282Z,96838.28
2023-03-26T15:53:54.171Z,96842.44
2023-03-26T15:56:43.876Z,96836.22
2023-03-26T15:59:27.000Z,96837.69
2023-03-26T16:02:03.104Z,96832.81
2023-03-26T16:04:50.755Z,96837.66
2023-03-26T16:07:47.974Z,96832.28
2023-03-26T16:10:31.343Z,96825.78
2023-03-26T16:13:36.338Z,96830.31
2023-03-26T16:16:25.740Z,96825.16
2023-03-26T16:18:59.566Z,96809.63
2023-03-26T16:22:06.325Z,96812.28
2023-03-26T16:24:36.360Z,96819.69
2023-03-26T16:27:21.890Z,96821.84
2023-03-26T16:30:32.895Z,96819.41
2023-03-26T16:33:17.734Z,96822.31
2023-03-26T16:36:18.489Z,96828.91
2023-03-26T16:38:50.469Z,96821.41
2023-03-26T16:41:20.269Z,96812.84
2023-03-26T16:43:54.407Z,96810.72
2023-03-26T16:46:33.166Z,96813.53
2023-03-26T16:49:09.189Z,96821.06
2023-03-26T16:51:54.182Z,96816.19
2023-03-26T16:54:27.103Z,96823.84
2023-03-26T16:57:02.180Z,96806.44
2023-03-26T17:00:04.932Z,96822.16
2023-03-26T17:02:48.151Z,96824.19
2023-03-26T17:05:22.297Z,96824.84
2023-03-26T17:07:56.493Z,96818.88
2023-03-26T17:10:32.215Z,96814.78
2023-03-26T17:13:05.340Z,96817.88
2023-03-26T17:15:42.302Z,96824.88
2023-03-26T17:18:35.160Z,96823.66
2023-03-26T17:21:10.702Z,96822.81
2023-03-26T17:23:53.293Z,96817.34
2023-03-26T17:26:24.891Z,96814.56
2023-03-26T17:29:01.722Z,96819.47
2023-03-26T17:31:38.909Z,96824.81
2023-03-26T17:34:49.748Z,96829.06
2023-03-26T17:37:50.628Z,96820.91
2023-03-26T17:40:47.009Z,96828.22
2023-03-26T17:43:34.333Z,96820.13
2023-03-26T17:46:03.687Z,96824.44
2023-03-26T17:48:35.648Z,96812.47
2023-03-26T17:51:18.866Z,96817.44
2023-03-26T17:53:49.099Z,96821.53
2023-03-26T17:56:20.014Z,96826.63
2023-03-26T17:58:52.720Z,96813.78
2023-03-26T18:01:24.266Z,96820.13
2023-03-26T18:03:56.078Z,96823.22
2023-03-26T18:06:40.184Z,96819.88
2023-03-26T18:09:20.626Z,96822.59
2023-03-26T18:12:01.971Z,96831.47
2023-03-26T18:15:05.896Z,96823.78
2023-03-26T18:17:41.041Z,96830.19
2023-03-26T18:20:21.733Z,96824.41
2023-03-26T18:22:51.672Z,96827.34
2023-03-26T18:25:26.278Z,96828.94
2023-03-26T18:27:54.611Z,96820.84
2023-03-26T18:30:24.693Z,96820.59
2023-03-26T18:33:00.144Z,96819.69
2023-03-26T18:35:42.336Z,96815.66
2023-03-26T18:38:12.235Z,96816.66
2023-03-26T18:40:44.262Z,96829.09
2023-03-26T18:43:25.140Z,96824.19
2023-03-26T18:46:01.165Z,96819.63
2023-03-26T18:48:30.345Z,96826.44
2023-03-26T18:51:04.951Z,96821.94
2023-03-26T18:53:38.617Z,96828.22
2023-03-26T18:56:22.120Z,96831.06
2023-03-26T18:58:53.673Z,96829.59
2023-03-26T19:01:26.161Z,96827.31
2023-03-26T19:03:55.406Z,96822.91
2023-03-26T19:06:24.939Z,96820.22
2023-03-26T19:08:54.489Z,96813.69
2023-03-26T19:11:25.777Z,96816.09
2023-03-26T19:14:03.561Z,96818.00
2023-03-26T19:16:36.613Z,96818.38
2023-03-26T19:19:07.406Z,96816.22
2023-03-26T19:21:36.754Z,96820.47
2023-03-26T19:24:06.326Z,96817.81
2023-03-26T19:26:36.757Z,96820.47
2023-03-26T19:29:05.648Z,96825.06
2023-03-26T19:31:36.297Z,96806.94
2023-03-26T19:34:20.160Z,96807.25
2023-03-26T19:36:58.370Z,96800.53
2023-03-26T19:39:36.840Z,96805.78
2023-03-26T19:42:08.898Z,96793.59
2023-03-26T19:44:39.712Z,96801.97
2023-03-26T19:47:10.105Z,96795.44
2023-03-26T19:49:43.378Z,96801.41
2023-03-26T19:52:16.145Z,96788.53
2023-03-26T19:54:59.774Z,96800.03
2023-03-26T19:57:32.674Z,96795.44
2023-03-26T20:00:01.362Z,96802.16
2023-03-26T20:02:30.463Z,96795.31
2023-03-26T20:04:59.137Z,96798.38
2023-03-26T20:07:35.862Z,96792.81
2023-03-26T20:10:05.897Z,96791.13
2023-03-26T20:12:35.873Z,96792.94
2023-03-26T20:15:19.620Z,96795.94
2023-03-26T20:17:50.266Z,96785.88
2023-03-26T20:20:19.725Z,96783.41
2023-03-26T20:22:48.418Z,96788.28
2023-03-26T20:25:20.248Z,96786.31
2023-03-26T20:27:53.142Z,96781.38
2023-03-26T20:30:36.874Z,96776.63
2023-03-26T20:33:13.458Z,96768.63
2023-03-26T20:35:43.291Z,96761.28
2023-03-26T20:38:12.064Z,96766.28
2023-03-26T20:40:41.075Z,96758.19
2023-03-26T20:43:16.371Z,96753.75
2023-03-26T20:45:44.554Z,96750.03
2023-03-26T20:48:13.234Z,96741.75
2023-03-26T20:50:50.730Z,96742.09
2023-03-26T20:53:30.515Z,96740.75
2023-03-26T20:55:58.983Z,96750.06
2023-03-26T20:58:32.056Z,96740.38
2023-03-26T21:01:02.215Z,96742.28
2023-03-26T21:03:33.273Z,96727.69
2023-03-26T21:06:02.402Z,96726.25
2023-03-26T21:08:37.216Z,96722.34
2023-03-26T21:11:07.561Z,96719.28
2023-03-26T21:13:41.169Z,96710.50
2023-03-26T21:16:13.169Z,96714.66
2023-03-26T21:18:42.700Z,96712.00
2023-03-26T21:21:28.180Z,96706.09
2023-03-26T21:24:00.723Z,96703.16
2023-03-26T21:26:32.161Z,96700.81
2023-03-26T21:29:02.881Z,96709.78
2023-03-26T21:31:36.743Z,96713.59
2023-03-26T21:34:07.371Z,96718.22
2023-03-26T21:36:36.855Z,96717.16
2023-03-26T21:39:06.544Z,96725.25
2023-03-26T21:41:43.707Z,96717.94
2023-03-26T21:44:14.434Z,96721.69
2023-03-26T21:46:44.042Z,96713.72
2023-03-26T21:49:14.335Z,96710.16
2023-03-26T21:51:43.025Z,96702.78
2023-03-26T21:54:22.942Z,96698.19
2023-03-26T21:56:58.101Z,96697.78
2023-03-26T21:59:34.583Z,96700.91
2023-03-26T22:02:08.617Z,96693.72
2023-03-26T22:04:40.777Z,96688.69
2023-03-26T22:07:14.246Z,96688.16
2023-03-26T22:09:43.907Z,96688.69
2023-03-26T22:12:12.570Z,96682.56
2023-03-26T22:14:42.520Z,96684.66
2023-03-26T22:17:10.822Z,96685.63
2023-03-26T22:19:39.360Z,96690.72
2023-03-26T22:22:07.672Z,96693.25
2023-03-26T22:24:36.119Z,96693.34
2023-03-26T22:27:04.569Z,96682.50
2023-03-26T22:29:33.546Z,96688.41
2023-03-26T22:32:04.219Z,96686.06
2023-03-26T22:34:35.210Z,96684.97
2023-03-26T22:37:03.627Z,96679.09
2023-03-26T22:39:32.315Z,96680.63
2023-03-26T22:42:02.175Z,96676.25
2023-03-26T22:44:31.421Z,96676.69
2023-03-26T22:47:01.506Z,96671.38
2023-03-26T22:49:31.504Z,96670.94
2023-03-26T22:52:01.046Z,96671.38
2023-03-26T22:54:29.536Z,96670.50
2023-03-26T22:56:57.802Z,96662.88
2023-03-26T22:59:26.531Z,96648.13
2023-03-26T23:01:54.985Z,96653.13
2023-03-26T23:04:31.596Z,96649.63
2023-03-26T23:07:01.934Z,96644.69
2023-03-26T23:09:30.666Z,96647.09
2023-03-26T23:11:58.946Z,96649.22
2023-03-26T23:14:28.746Z,96651.53
2023-03-26T23:16:57.295Z,96649.63
2023-03-26T23:19:26.514Z,96641.84
2023-03-26T23:21:54.825Z,96637.72
2023-03-26T23:24:26.450Z,96635.81
2023-03-26T23:26:54.906Z,96631.75
2023-03-26T23:29:23.340Z,96629.94
2023-03-26T23:31:53.079Z,96629.00
2023-03-26T23:34:21.655Z,96623.41
2023-03-26T23:36:50.214Z,96619.41
2023-03-26T23:39:18.961Z,96626.31
2023-03-26T23:41:48.570Z,96617.72
2023-03-26T23:44:17.195Z,96618.41
2023-03-26T23:46:45.422Z,96610.13
2023-03-26T23:49:15.083Z,96608.94
2023-03-26T23:51:43.269Z,96620.72
2023-03-26T23:54:11.809Z,96621.16
2023-03-26T23:56:40.117Z,96614.28
2023-03-26T23:59:10.037Z,96610.53
